Cartoogechaye, North Carolina
Current Conditions -  °F | °C
As of 4:35 PM on Friday 19 Dec 2014 (Local Time) from KRHP Reporting Station
Clear Clear  
Wind Chill:   Ceiling: Unl
Heat Index:   Visibility: 10mi
Dew Point:   Wind: 3mph
Humidity: 68%   Direction: 270°W
Pressure: 30.1"   Gusts: NA
Location:  35.1737°N, 83.4215°W
Report Text: KRHP 192135Z AUTO 27003KT 10SM CLR 08/03 A3010 RMK AO2 T00810025
Loading
Personal Weather Stations






























Interactive Weather Map New forecast layout! Learn more

10-Day Weather Forecast

Advertisements
Track Severe Weather on mobile